This is the latest recevied weather packets stored in our database for station/object K7D3. If no packets are shown the sender has not sent any weather packets the latest 10 day(s).
| Time | Temp. | Humidity | Pressure | Rain* | Wind** | Luminosity | Snow |
|---|---|---|---|---|---|---|---|
| 1777802414 | -1.11° C | 90% | - | 0 mm | 0 m/s | - | - |
| 1777801935 | -0.56° C | 90% | - | 0 mm | 0 m/s | - | - |
| 1777801455 | -0.56° C | 88% | - | 0 mm | 0 m/s | - | - |
| 1777800972 | 0° C | 85% | - | 0 mm | 0 m/s | - | - |
| 1777800493 | 1.11° C | 85% | - | 0 mm | 0 m/s | - | - |
| 1777800013 | 1.11° C | 85% | - | 0 mm | 0 m/s | - | - |
| 1777799530 | 1.11° C | 85% | - | 0 mm | 0 m/s | - | - |
| 1777799051 | 1.67° C | 78% | - | 0 mm | 0 m/s | - | - |
| 1777798572 | 3.33° C | 72% | - | 0 mm | 0 m/s | - | - |
| 1777798089 | 3.89° C | 70% | - | 0 mm | 0 m/s | - | - |
| 1777797609 | 3.89° C | 71% | - | 0 mm | 0 m/s | - | - |
| 1777797130 | 3.89° C | 70% | - | 0 mm | 0.89 m/s, 259° | - | - |
| 1777796647 | 4.44° C | 70% | - | 0 mm | 0 m/s | - | - |
| 1777796168 | 4.44° C | 69% | - | 0 mm | 0 m/s | - | - |
| 1777795688 | 4.44° C | 68% | - | 0 mm | 0 m/s | - | - |
| 1777795205 | 4.44° C | 67% | - | 0 mm | 0 m/s | - | - |
| 1777794726 | 4.44° C | 66% | - | 0 mm | 2.24 m/s, 276° | - | - |
| 1777794245 | 4.44° C | 67% | - | 0 mm | 0 m/s | - | - |
| 1777793762 | 4.44° C | 66% | - | 0 mm | 0 m/s | - | - |
| 1777793283 | 3.89° C | 67% | - | 0 mm | 0 m/s | - | - |
| 1777792803 | 3.89° C | 68% | - | 0 mm | 0 m/s | - | - |
| 1777792320 | 3.33° C | 71% | - | 0 mm | 0 m/s | - | - |
| 1777791840 | 2.78° C | 72% | - | 0 mm | 0 m/s | - | - |
| 1777791361 | 2.22° C | 73% | - | 0 mm | 0 m/s | - | - |
| 1777790878 | 2.22° C | 74% | - | 0 mm | 0 m/s | - | - |
* Rain latest hour (hover to see other rain measurements)
** Current wind speed in m/s (hover to see current wind gust speed)